sensor_id;sensor_type;location;lat;lon;timestamp;pressure;altitude;pressure_sealevel;temperature;humidity
37792;BME280;29527;55.766;37.570;2023-04-07T00:01:54;100706.84;;;4.72;42.45
37792;BME280;29527;55.766;37.570;2023-04-07T00:04:19;100699.94;;;4.68;41.84
37792;BME280;29527;55.766;37.570;2023-04-07T00:06:45;100699.28;;;4.63;42.40
37792;BME280;29527;55.766;37.570;2023-04-07T00:09:10;100703.41;;;4.70;42.26
37792;BME280;29527;55.766;37.570;2023-04-07T00:11:36;100698.59;;;4.58;42.29
37792;BME280;29527;55.766;37.570;2023-04-07T00:14:02;100704.59;;;4.63;42.14
37792;BME280;29527;55.766;37.570;2023-04-07T00:16:27;100700.56;;;4.53;43.33
37792;BME280;29527;55.766;37.570;2023-04-07T00:18:53;100700.66;;;4.51;42.31
37792;BME280;29527;55.766;37.570;2023-04-07T00:21:18;100694.47;;;4.73;42.02
37792;BME280;29527;55.766;37.570;2023-04-07T00:23:44;100700.22;;;4.62;42.74
37792;BME280;29527;55.766;37.570;2023-04-07T00:26:09;100708.56;;;4.73;42.21
37792;BME280;29527;55.766;37.570;2023-04-07T00:28:34;100702.72;;;4.65;42.68
37792;BME280;29527;55.766;37.570;2023-04-07T00:31:00;100696.63;;;4.63;42.76
37792;BME280;29527;55.766;37.570;2023-04-07T00:33:25;100680.41;;;4.49;41.94
37792;BME280;29527;55.766;37.570;2023-04-07T00:35:51;100703.78;;;4.61;42.14
37792;BME280;29527;55.766;37.570;2023-04-07T00:38:18;100701.50;;;4.52;42.96
37792;BME280;29527;55.766;37.570;2023-04-07T00:40:44;100702.16;;;4.36;43.05
37792;BME280;29527;55.766;37.570;2023-04-07T00:43:09;100704.00;;;4.34;43.00
37792;BME280;29527;55.766;37.570;2023-04-07T00:45:35;100696.84;;;4.36;42.58
37792;BME280;29527;55.766;37.570;2023-04-07T00:48:01;100704.84;;;4.35;43.51
37792;BME280;29527;55.766;37.570;2023-04-07T00:50:26;100711.22;;;4.30;43.22
37792;BME280;29527;55.766;37.570;2023-04-07T00:52:52;100709.47;;;4.29;42.75
37792;BME280;29527;55.766;37.570;2023-04-07T00:55:19;100707.00;;;4.25;43.72
37792;BME280;29527;55.766;37.570;2023-04-07T00:57:44;100704.75;;;4.15;44.02
37792;BME280;29527;55.766;37.570;2023-04-07T01:00:11;100708.44;;;4.11;43.72
37792;BME280;29527;55.766;37.570;2023-04-07T01:02:44;100706.00;;;4.05;43.85
37792;BME280;29527;55.766;37.570;2023-04-07T01:05:58;100703.09;;;4.56;42.15
37792;BME280;29527;55.766;37.570;2023-04-07T01:10:41;100694.19;;;4.14;43.59
37792;BME280;29527;55.766;37.570;2023-04-07T01:15:35;100707.94;;;4.01;43.66
37792;BME280;29527;55.766;37.570;2023-04-07T01:18:16;100713.69;;;3.89;44.23
37792;BME280;29527;55.766;37.570;2023-04-07T01:20:47;100707.63;;;3.85;44.08
37792;BME280;29527;55.766;37.570;2023-04-07T01:23:22;100718.34;;;3.82;44.22
37792;BME280;29527;55.766;37.570;2023-04-07T01:26:03;100715.78;;;3.81;44.22
37792;BME280;29527;55.766;37.570;2023-04-07T01:31:13;100721.81;;;3.61;45.38
37792;BME280;29527;55.766;37.570;2023-04-07T01:33:42;100712.84;;;3.65;44.97
37792;BME280;29527;55.766;37.570;2023-04-07T01:36:10;100688.53;;;3.53;44.36
37792;BME280;29527;55.766;37.570;2023-04-07T01:38:36;100709.97;;;3.71;44.86
37792;BME280;29527;55.766;37.570;2023-04-07T01:41:03;100716.13;;;3.71;44.78
37792;BME280;29527;55.766;37.570;2023-04-07T01:43:30;100715.94;;;3.76;44.57
37792;BME280;29527;55.766;37.570;2023-04-07T01:45:56;100716.50;;;3.84;44.22
37792;BME280;29527;55.766;37.570;2023-04-07T01:48:22;100707.31;;;3.71;44.34
37792;BME280;29527;55.766;37.570;2023-04-07T01:50:50;100711.66;;;3.50;45.01
37792;BME280;29527;55.766;37.570;2023-04-07T01:53:16;100697.97;;;3.37;45.51
37792;BME280;29527;55.766;37.570;2023-04-07T01:55:43;100712.97;;;3.38;45.51
37792;BME280;29527;55.766;37.570;2023-04-07T01:58:09;100716.50;;;3.37;45.19
37792;BME280;29527;55.766;37.570;2023-04-07T02:00:34;100709.94;;;3.23;46.04
37792;BME280;29527;55.766;37.570;2023-04-07T02:03:15;100718.13;;;3.41;45.35
37792;BME280;29527;55.766;37.570;2023-04-07T02:05:46;100716.41;;;3.40;45.18
37792;BME280;29527;55.766;37.570;2023-04-07T02:08:15;100717.06;;;3.21;46.16
37792;BME280;29527;55.766;37.570;2023-04-07T02:10:42;100719.03;;;3.16;45.96
37792;BME280;29527;55.766;37.570;2023-04-07T02:13:15;100723.63;;;3.35;45.57
37792;BME280;29527;55.766;37.570;2023-04-07T02:15:41;100712.72;;;3.19;46.03
37792;BME280;29527;55.766;37.570;2023-04-07T02:18:09;100724.31;;;3.16;45.83
37792;BME280;29527;55.766;37.570;2023-04-07T02:20:37;100722.78;;;3.09;46.43
37792;BME280;29527;55.766;37.570;2023-04-07T02:23:09;100718.94;;;3.18;45.80
37792;BME280;29527;55.766;37.570;2023-04-07T02:25:35;100716.56;;;3.10;46.07
37792;BME280;29527;55.766;37.570;2023-04-07T02:28:03;100723.75;;;3.06;46.40
37792;BME280;29527;55.766;37.570;2023-04-07T02:30:29;100722.78;;;3.09;46.32
37792;BME280;29527;55.766;37.570;2023-04-07T02:32:55;100725.97;;;2.93;47.37
37792;BME280;29527;55.766;37.570;2023-04-07T02:35:21;100725.53;;;3.06;46.61
37792;BME280;29527;55.766;37.570;2023-04-07T02:37:47;100724.97;;;2.96;46.65
37792;BME280;29527;55.766;37.570;2023-04-07T02:40:13;100723.63;;;2.84;46.96
37792;BME280;29527;55.766;37.570;2023-04-07T02:42:40;100693.97;;;2.74;46.75
37792;BME280;29527;55.766;37.570;2023-04-07T02:45:07;100722.22;;;2.99;46.25
37792;BME280;29527;55.766;37.570;2023-04-07T02:47:34;100731.34;;;3.17;46.67
37792;BME280;29527;55.766;37.570;2023-04-07T02:49:59;100727.34;;;3.05;46.76
37792;BME280;29527;55.766;37.570;2023-04-07T02:52:25;100727.44;;;3.02;46.56
37792;BME280;29527;55.766;37.570;2023-04-07T02:54:50;100729.53;;;2.92;46.79
37792;BME280;29527;55.766;37.570;2023-04-07T02:57:16;100722.41;;;2.94;46.55
37792;BME280;29527;55.766;37.570;2023-04-07T02:59:42;100733.00;;;2.94;47.01
37792;BME280;29527;55.766;37.570;2023-04-07T03:02:07;100736.94;;;3.08;46.44
37792;BME280;29527;55.766;37.570;2023-04-07T03:04:33;100742.22;;;3.08;46.77
37792;BME280;29527;55.766;37.570;2023-04-07T03:06:58;100741.75;;;2.96;46.95
37792;BME280;29527;55.766;37.570;2023-04-07T03:09:24;100728.44;;;2.98;47.15
37792;BME280;29527;55.766;37.570;2023-04-07T03:11:50;100730.72;;;3.09;46.69
37792;BME280;29527;55.766;37.570;2023-04-07T03:14:16;100740.75;;;2.99;46.91
37792;BME280;29527;55.766;37.570;2023-04-07T03:16:41;100727.97;;;3.12;46.15
37792;BME280;29527;55.766;37.570;2023-04-07T03:19:08;100736.41;;;3.23;46.11
37792;BME280;29527;55.766;37.570;2023-04-07T03:21:34;100733.16;;;3.15;46.52
37792;BME280;29527;55.766;37.570;2023-04-07T03:24:00;100753.47;;;3.14;46.85
37792;BME280;29527;55.766;37.570;2023-04-07T03:26:25;100747.16;;;3.44;45.82
37792;BME280;29527;55.766;37.570;2023-04-07T03:28:51;100747.47;;;4.06;44.98
37792;BME280;29527;55.766;37.570;2023-04-07T03:31:17;100749.50;;;4.88;43.29
37792;BME280;29527;55.766;37.570;2023-04-07T03:33:42;100740.06;;;5.64;40.93
37792;BME280;29527;55.766;37.570;2023-04-07T03:36:08;100744.22;;;6.29;39.78
37792;BME280;29527;55.766;37.570;2023-04-07T03:38:33;100740.47;;;7.05;38.04
37792;BME280;29527;55.766;37.570;2023-04-07T03:40:59;100741.22;;;7.76;36.53
37792;BME280;29527;55.766;37.570;2023-04-07T03:43:24;100750.31;;;8.38;35.26
37792;BME280;29527;55.766;37.570;2023-04-07T03:45:53;100763.03;;;9.11;34.12
37792;BME280;29527;55.766;37.570;2023-04-07T03:48:19;100753.28;;;9.55;33.37
37792;BME280;29527;55.766;37.570;2023-04-07T03:50:45;100746.34;;;10.24;32.18
37792;BME280;29527;55.766;37.570;2023-04-07T03:53:11;100750.06;;;10.90;30.77
37792;BME280;29527;55.766;37.570;2023-04-07T03:55:38;100756.16;;;11.46;29.63
37792;BME280;29527;55.766;37.570;2023-04-07T03:58:04;100723.94;;;11.72;28.96
37792;BME280;29527;55.766;37.570;2023-04-07T04:00:30;100749.25;;;12.44;28.24
37792;BME280;29527;55.766;37.570;2023-04-07T04:02:57;100751.19;;;12.90;27.44
37792;BME280;29527;55.766;37.570;2023-04-07T04:05:23;100746.72;;;13.49;26.74
37792;BME280;29527;55.766;37.570;2023-04-07T04:07:48;100748.28;;;14.20;25.81
37792;BME280;29527;55.766;37.570;2023-04-07T04:10:15;100752.13;;;14.73;24.98
37792;BME280;29527;55.766;37.570;2023-04-07T04:12:41;100755.59;;;15.18;24.10
37792;BME280;29527;55.766;37.570;2023-04-07T04:15:06;100752.69;;;15.83;23.54
37792;BME280;29527;55.766;37.570;2023-04-07T04:17:32;100743.06;;;16.21;22.92
37792;BME280;29527;55.766;37.570;2023-04-07T04:19:57;100753.41;;;16.77;22.31
37792;BME280;29527;55.766;37.570;2023-04-07T04:22:23;100765.59;;;17.50;21.26
37792;BME280;29527;55.766;37.570;2023-04-07T04:24:48;100760.75;;;17.91;20.63
37792;BME280;29527;55.766;37.570;2023-04-07T04:27:14;100757.16;;;18.57;19.75
37792;BME280;29527;55.766;37.570;2023-04-07T04:29:39;100743.75;;;18.09;20.17
37792;BME280;29527;55.766;37.570;2023-04-07T04:32:05;100760.94;;;18.82;19.58
37792;BME280;29527;55.766;37.570;2023-04-07T04:34:30;100765.72;;;19.43;18.81
37792;BME280;29527;55.766;37.570;2023-04-07T04:36:56;100754.25;;;20.18;17.67
37792;BME280;29527;55.766;37.570;2023-04-07T04:39:21;100761.59;;;21.02;17.45
37792;BME280;29527;55.766;37.570;2023-04-07T04:41:47;100763.59;;;21.75;16.39
37792;BME280;29527;55.766;37.570;2023-04-07T04:44:12;100758.13;;;22.23;16.11
37792;BME280;29527;55.766;37.570;2023-04-07T04:46:37;100757.25;;;22.86;15.51
37792;BME280;29527;55.766;37.570;2023-04-07T04:49:03;100756.69;;;23.14;14.91
37792;BME280;29527;55.766;37.570;2023-04-07T04:51:28;100762.47;;;22.72;14.92
37792;BME280;29527;55.766;37.570;2023-04-07T04:53:54;100767.50;;;23.07;14.66
37792;BME280;29527;55.766;37.570;2023-04-07T04:56:19;100758.81;;;23.27;14.31
37792;BME280;29527;55.766;37.570;2023-04-07T04:58:45;100760.19;;;23.61;14.43
37792;BME280;29527;55.766;37.570;2023-04-07T05:01:11;100764.63;;;24.37;13.84
37792;BME280;29527;55.766;37.570;2023-04-07T05:03:37;100762.16;;;24.79;13.54
37792;BME280;29527;55.766;37.570;2023-04-07T05:06:03;100768.22;;;24.96;13.19
37792;BME280;29527;55.766;37.570;2023-04-07T05:08:28;100766.56;;;25.23;12.61
37792;BME280;29527;55.766;37.570;2023-04-07T05:10:54;100769.91;;;25.76;12.52
37792;BME280;29527;55.766;37.570;2023-04-07T05:13:20;100762.38;;;26.27;12.35
37792;BME280;29527;55.766;37.570;2023-04-07T05:15:46;100771.50;;;26.34;11.96
37792;BME280;29527;55.766;37.570;2023-04-07T05:18:11;100767.59;;;26.70;12.10
37792;BME280;29527;55.766;37.570;2023-04-07T05:20:37;100768.00;;;26.67;11.78
37792;BME280;29527;55.766;37.570;2023-04-07T05:23:02;100772.72;;;26.87;11.74
37792;BME280;29527;55.766;37.570;2023-04-07T05:25:28;100771.06;;;27.46;11.14
37792;BME280;29527;55.766;37.570;2023-04-07T05:27:53;100776.97;;;27.30;11.09
37792;BME280;29527;55.766;37.570;2023-04-07T05:30:19;100780.69;;;28.03;10.81
37792;BME280;29527;55.766;37.570;2023-04-07T05:32:45;100772.69;;;28.86;10.65
37792;BME280;29527;55.766;37.570;2023-04-07T05:35:11;100780.56;;;29.65;9.81
37792;BME280;29527;55.766;37.570;2023-04-07T05:37:36;100780.44;;;30.16;9.53
37792;BME280;29527;55.766;37.570;2023-04-07T05:40:02;100781.47;;;30.83;8.98
37792;BME280;29527;55.766;37.570;2023-04-07T05:42:28;100775.41;;;31.04;8.55
37792;BME280;29527;55.766;37.570;2023-04-07T05:44:55;100778.59;;;31.68;8.54
37792;BME280;29527;55.766;37.570;2023-04-07T05:47:20;100777.31;;;32.35;8.09
37792;BME280;29527;55.766;37.570;2023-04-07T05:49:46;100776.38;;;32.75;7.92
37792;BME280;29527;55.766;37.570;2023-04-07T05:52:12;100784.47;;;32.77;7.53
37792;BME280;29527;55.766;37.570;2023-04-07T05:54:38;100775.16;;;32.25;8.04
37792;BME280;29527;55.766;37.570;2023-04-07T05:57:06;100780.03;;;32.47;8.08
37792;BME280;29527;55.766;37.570;2023-04-07T05:59:32;100784.72;;;33.04;7.83
37792;BME280;29527;55.766;37.570;2023-04-07T06:01:58;100782.59;;;32.65;7.44
37792;BME280;29527;55.766;37.570;2023-04-07T06:04:23;100778.66;;;32.78;7.44
37792;BME280;29527;55.766;37.570;2023-04-07T06:06:49;100781.31;;;33.71;7.42
37792;BME280;29527;55.766;37.570;2023-04-07T06:09:14;100782.75;;;34.62;6.80
37792;BME280;29527;55.766;37.570;2023-04-07T06:11:40;100783.91;;;35.27;6.63
37792;BME280;29527;55.766;37.570;2023-04-07T06:14:05;100780.31;;;35.31;6.43
37792;BME280;29527;55.766;37.570;2023-04-07T06:16:31;100773.75;;;35.48;6.46
37792;BME280;29527;55.766;37.570;2023-04-07T06:18:56;100785.00;;;35.63;6.14
37792;BME280;29527;55.766;37.570;2023-04-07T06:21:22;100780.13;;;35.86;5.89
37792;BME280;29527;55.766;37.570;2023-04-07T06:23:48;100789.81;;;35.78;6.10
37792;BME280;29527;55.766;37.570;2023-04-07T06:26:13;100780.88;;;36.19;5.82
37792;BME280;29527;55.766;37.570;2023-04-07T06:28:39;100781.00;;;36.66;5.51
37792;BME280;29527;55.766;37.570;2023-04-07T06:31:05;100784.69;;;37.13;5.45
37792;BME280;29527;55.766;37.570;2023-04-07T06:33:31;100776.19;;;36.46;5.46
37792;BME280;29527;55.766;37.570;2023-04-07T06:35:56;100777.06;;;36.57;5.84
37792;BME280;29527;55.766;37.570;2023-04-07T06:38:22;100781.56;;;36.84;5.44
37792;BME280;29527;55.766;37.570;2023-04-07T06:40:48;100782.44;;;37.36;5.15
37792;BME280;29527;55.766;37.570;2023-04-07T06:43:13;100782.13;;;37.38;5.63
37792;BME280;29527;55.766;37.570;2023-04-07T06:45:38;100784.06;;;37.68;5.33
37792;BME280;29527;55.766;37.570;2023-04-07T06:48:04;100775.63;;;37.99;4.90
37792;BME280;29527;55.766;37.570;2023-04-07T06:50:30;100781.44;;;38.03;4.80
37792;BME280;29527;55.766;37.570;2023-04-07T06:52:55;100764.59;;;38.18;5.17
37792;BME280;29527;55.766;37.570;2023-04-07T06:55:21;100784.38;;;38.77;4.76
37792;BME280;29527;55.766;37.570;2023-04-07T06:57:46;100789.94;;;38.48;4.72
37792;BME280;29527;55.766;37.570;2023-04-07T07:00:12;100782.88;;;37.85;4.68
37792;BME280;29527;55.766;37.570;2023-04-07T07:02:37;100773.28;;;38.17;5.00
37792;BME280;29527;55.766;37.570;2023-04-07T07:05:03;100788.75;;;37.99;4.68
37792;BME280;29527;55.766;37.570;2023-04-07T07:07:29;100782.97;;;38.35;4.64
37792;BME280;29527;55.766;37.570;2023-04-07T07:09:55;100787.66;;;37.79;5.01
37792;BME280;29527;55.766;37.570;2023-04-07T07:12:20;100764.38;;;38.10;4.94
37792;BME280;29527;55.766;37.570;2023-04-07T07:14:47;100783.59;;;39.12;4.46
37792;BME280;29527;55.766;37.570;2023-04-07T07:17:12;100790.56;;;39.98;4.02
37792;BME280;29527;55.766;37.570;2023-04-07T07:19:38;100781.09;;;40.37;3.87
37792;BME280;29527;55.766;37.570;2023-04-07T07:22:03;100784.28;;;40.50;3.96
37792;BME280;29527;55.766;37.570;2023-04-07T07:24:32;100799.50;;;40.62;3.88
37792;BME280;29527;55.766;37.570;2023-04-07T07:26:59;100782.09;;;40.03;4.27
37792;BME280;29527;55.766;37.570;2023-04-07T07:29:24;100790.81;;;40.01;3.95
37792;BME280;29527;55.766;37.570;2023-04-07T07:31:50;100781.03;;;39.99;3.84
37792;BME280;29527;55.766;37.570;2023-04-07T07:34:15;100780.19;;;39.98;3.91
37792;BME280;29527;55.766;37.570;2023-04-07T07:36:41;100784.97;;;39.98;3.71
37792;BME280;29527;55.766;37.570;2023-04-07T07:39:06;100789.84;;;40.11;3.64
37792;BME280;29527;55.766;37.570;2023-04-07T07:41:32;100786.03;;;40.02;3.84
37792;BME280;29527;55.766;37.570;2023-04-07T07:43:57;100801.75;;;39.14;4.16
37792;BME280;29527;55.766;37.570;2023-04-07T07:46:23;100763.88;;;37.87;4.56
37792;BME280;29527;55.766;37.570;2023-04-07T07:48:50;100782.41;;;36.84;4.91
37792;BME280;29527;55.766;37.570;2023-04-07T07:51:16;100774.44;;;36.29;4.87
37792;BME280;29527;55.766;37.570;2023-04-07T07:53:45;100783.84;;;36.02;5.01
37792;BME280;29527;55.766;37.570;2023-04-07T07:56:10;100775.09;;;35.83;5.07
37792;BME280;29527;55.766;37.570;2023-04-07T07:58:36;100783.06;;;35.26;5.65
37792;BME280;29527;55.766;37.570;2023-04-07T08:01:01;100774.00;;;35.03;5.71
37792;BME280;29527;55.766;37.570;2023-04-07T08:03:27;100776.28;;;33.33;6.47
37792;BME280;29527;55.766;37.570;2023-04-07T08:05:53;100776.75;;;30.71;7.57
37792;BME280;29527;55.766;37.570;2023-04-07T08:08:18;100788.78;;;27.98;8.94
37792;BME280;29527;55.766;37.570;2023-04-07T08:10:44;100771.41;;;25.21;10.67
37792;BME280;29527;55.766;37.570;2023-04-07T08:13:09;100790.25;;;22.76;12.70
37792;BME280;29527;55.766;37.570;2023-04-07T08:15:35;100776.00;;;20.70;14.19
37792;BME280;29527;55.766;37.570;2023-04-07T08:18:00;100769.72;;;18.58;15.96
37792;BME280;29527;55.766;37.570;2023-04-07T08:20:29;100766.63;;;17.29;17.25
37792;BME280;29527;55.766;37.570;2023-04-07T08:22:55;100778.44;;;16.69;18.27
37792;BME280;29527;55.766;37.570;2023-04-07T08:25:21;100786.59;;;16.38;18.29
37792;BME280;29527;55.766;37.570;2023-04-07T08:27:47;100742.22;;;15.38;19.07
37792;BME280;29527;55.766;37.570;2023-04-07T08:30:13;100774.53;;;15.06;19.91
37792;BME280;29527;55.766;37.570;2023-04-07T08:32:43;100783.59;;;14.84;20.06
37792;BME280;29527;55.766;37.570;2023-04-07T08:35:10;100770.22;;;14.39;20.82
37792;BME280;29527;55.766;37.570;2023-04-07T08:37:37;100779.16;;;14.16;21.16
37792;BME280;29527;55.766;37.570;2023-04-07T08:40:03;100784.78;;;13.90;21.31
37792;BME280;29527;55.766;37.570;2023-04-07T08:42:31;100768.38;;;14.16;20.79
37792;BME280;29527;55.766;37.570;2023-04-07T08:45:01;100766.69;;;13.58;21.57
37792;BME280;29527;55.766;37.570;2023-04-07T08:47:33;100779.25;;;13.22;21.94
37792;BME280;29527;55.766;37.570;2023-04-07T08:50:01;100770.63;;;12.94;22.85
37792;BME280;29527;55.766;37.570;2023-04-07T08:55:00;100775.09;;;12.58;23.60
37792;BME280;29527;55.766;37.570;2023-04-07T08:57:32;100776.13;;;12.68;23.79
37792;BME280;29527;55.766;37.570;2023-04-07T08:59:59;100776.53;;;12.75;23.68
37792;BME280;29527;55.766;37.570;2023-04-07T09:02:38;100779.34;;;13.09;23.12
37792;BME280;29527;55.766;37.570;2023-04-07T09:05:05;100793.44;;;13.24;22.60
37792;BME280;29527;55.766;37.570;2023-04-07T09:07:32;100775.59;;;13.23;22.56
37792;BME280;29527;55.766;37.570;2023-04-07T09:09:58;100779.81;;;13.39;22.04
37792;BME280;29527;55.766;37.570;2023-04-07T09:12:24;100768.91;;;13.29;22.12
37792;BME280;29527;55.766;37.570;2023-04-07T09:14:49;100756.09;;;12.72;22.92
37792;BME280;29527;55.766;37.570;2023-04-07T09:17:15;100782.97;;;12.97;22.59
37792;BME280;29527;55.766;37.570;2023-04-07T09:19:40;100765.78;;;12.75;23.33
37792;BME280;29527;55.766;37.570;2023-04-07T09:22:06;100784.25;;;12.80;23.22
37792;BME280;29527;55.766;37.570;2023-04-07T09:24:32;100773.44;;;12.68;23.21
37792;BME280;29527;55.766;37.570;2023-04-07T09:27:18;100780.13;;;12.87;22.82
37792;BME280;29527;55.766;37.570;2023-04-07T09:29:45;100784.31;;;12.67;23.36
37792;BME280;29527;55.766;37.570;2023-04-07T09:32:11;100775.09;;;12.58;23.40
37792;BME280;29527;55.766;37.570;2023-04-07T09:34:39;100785.38;;;12.64;23.28
37792;BME280;29527;55.766;37.570;2023-04-07T09:37:05;100782.28;;;12.33;23.44
37792;BME280;29527;55.766;37.570;2023-04-07T09:39:32;100770.59;;;12.21;23.58
37792;BME280;29527;55.766;37.570;2023-04-07T09:41:57;100773.63;;;12.16;23.74
37792;BME280;29527;55.766;37.570;2023-04-07T09:44:24;100747.97;;;12.12;23.25
37792;BME280;29527;55.766;37.570;2023-04-07T09:46:57;100768.75;;;12.22;23.36
37792;BME280;29527;55.766;37.570;2023-04-07T09:49:24;100769.38;;;12.38;23.73
37792;BME280;29527;55.766;37.570;2023-04-07T09:51:59;100760.97;;;12.67;23.31
37792;BME280;29527;55.766;37.570;2023-04-07T09:54:40;100760.53;;;13.09;22.62
37792;BME280;29527;55.766;37.570;2023-04-07T09:57:07;100760.97;;;12.91;22.93
37792;BME280;29527;55.766;37.570;2023-04-07T09:59:34;100768.22;;;13.02;22.40
37792;BME280;29527;55.766;37.570;2023-04-07T10:02:01;100768.59;;;13.09;22.62
37792;BME280;29527;55.766;37.570;2023-04-07T10:04:27;100762.53;;;12.83;22.81
37792;BME280;29527;55.766;37.570;2023-04-07T10:06:54;100766.91;;;12.59;23.32
37792;BME280;29527;55.766;37.570;2023-04-07T10:09:22;100762.00;;;12.53;23.13
37792;BME280;29527;55.766;37.570;2023-04-07T10:11:49;100766.53;;;12.77;22.77
37792;BME280;29527;55.766;37.570;2023-04-07T10:14:16;100768.22;;;12.54;23.26
37792;BME280;29527;55.766;37.570;2023-04-07T10:16:42;100772.75;;;12.53;23.30
37792;BME280;29527;55.766;37.570;2023-04-07T10:19:08;100771.31;;;12.60;23.39
37792;BME280;29527;55.766;37.570;2023-04-07T10:21:37;100771.44;;;12.59;23.63
37792;BME280;29527;55.766;37.570;2023-04-07T10:26:53;100759.16;;;12.68;23.56
37792;BME280;29527;55.766;37.570;2023-04-07T10:29:19;100767.88;;;12.58;23.67
37792;BME280;29527;55.766;37.570;2023-04-07T10:31:46;100778.47;;;12.73;23.18
37792;BME280;29527;55.766;37.570;2023-04-07T10:34:12;100760.63;;;12.72;22.72
37792;BME280;29527;55.766;37.570;2023-04-07T10:37:12;100769.38;;;12.87;22.53
37792;BME280;29527;55.766;37.570;2023-04-07T10:39:39;100760.75;;;12.70;22.34
37792;BME280;29527;55.766;37.570;2023-04-07T10:42:05;100766.44;;;12.66;22.48
37792;BME280;29527;55.766;37.570;2023-04-07T10:44:50;100774.06;;;12.47;22.85
37792;BME280;29527;55.766;37.570;2023-04-07T10:47:17;100765.81;;;12.38;23.44
37792;BME280;29527;55.766;37.570;2023-04-07T10:52:37;100772.94;;;12.63;22.93
37792;BME280;29527;55.766;37.570;2023-04-07T11:00:37;100758.72;;;12.85;22.51
37792;BME280;29527;55.766;37.570;2023-04-07T11:03:10;100770.59;;;12.83;22.90
37792;BME280;29527;55.766;37.570;2023-04-07T11:05:40;100772.22;;;12.97;22.40
37792;BME280;29527;55.766;37.570;2023-04-07T11:08:06;100767.00;;;13.06;22.35
37792;BME280;29527;55.766;37.570;2023-04-07T11:10:35;100769.47;;;13.10;22.44
37792;BME280;29527;55.766;37.570;2023-04-07T11:13:07;100766.28;;;13.04;22.47
37792;BME280;29527;55.766;37.570;2023-04-07T11:15:36;100761.72;;;12.94;22.71
37792;BME280;29527;55.766;37.570;2023-04-07T11:18:13;100757.84;;;13.09;22.66
37792;BME280;29527;55.766;37.570;2023-04-07T11:20:53;100746.31;;;13.31;22.17
37792;BME280;29527;55.766;37.570;2023-04-07T11:23:21;100758.72;;;13.45;21.95
37792;BME280;29527;55.766;37.570;2023-04-07T11:25:59;100766.91;;;13.55;21.58
37792;BME280;29527;55.766;37.570;2023-04-07T11:28:28;100760.31;;;13.59;21.85
37792;BME280;29527;55.766;37.570;2023-04-07T11:30:54;100748.69;;;13.59;21.61
37792;BME280;29527;55.766;37.570;2023-04-07T11:33:31;100754.94;;;13.59;22.03
37792;BME280;29527;55.766;37.570;2023-04-07T11:36:01;100765.63;;;13.37;21.93
37792;BME280;29527;55.766;37.570;2023-04-07T11:38:28;100747.28;;;13.30;22.14
37792;BME280;29527;55.766;37.570;2023-04-07T11:41:09;100752.28;;;13.35;22.25
37792;BME280;29527;55.766;37.570;2023-04-07T11:43:35;100759.31;;;13.13;22.10
37792;BME280;29527;55.766;37.570;2023-04-07T11:48:35;100755.97;;;12.98;22.43
37792;BME280;29527;55.766;37.570;2023-04-07T11:51:02;100716.59;;;12.86;22.38
37792;BME280;29527;55.766;37.570;2023-04-07T11:53:30;100747.38;;;13.17;22.34
37792;BME280;29527;55.766;37.570;2023-04-07T11:56:11;100751.53;;;13.33;22.07
37792;BME280;29527;55.766;37.570;2023-04-07T11:58:50;100750.63;;;13.45;21.57
37792;BME280;29527;55.766;37.570;2023-04-07T12:01:16;100730.84;;;13.69;21.34
37792;BME280;29527;55.766;37.570;2023-04-07T12:06:30;100733.94;;;13.29;22.13
37792;BME280;29527;55.766;37.570;2023-04-07T12:09:00;100744.72;;;13.40;22.03
37792;BME280;29527;55.766;37.570;2023-04-07T12:11:26;100738.97;;;13.33;22.19
37792;BME280;29527;55.766;37.570;2023-04-07T12:13:52;100745.19;;;13.34;22.47
37792;BME280;29527;55.766;37.570;2023-04-07T12:16:19;100726.00;;;13.39;22.52
37792;BME280;29527;55.766;37.570;2023-04-07T12:18:46;100737.34;;;13.78;22.17
37792;BME280;29527;55.766;37.570;2023-04-07T12:21:12;100698.41;;;13.48;22.17
37792;BME280;29527;55.766;37.570;2023-04-07T12:23:37;100731.66;;;13.47;22.08
37792;BME280;29527;55.766;37.570;2023-04-07T12:26:03;100739.31;;;13.29;22.07
37792;BME280;29527;55.766;37.570;2023-04-07T12:28:28;100733.09;;;13.28;22.04
37792;BME280;29527;55.766;37.570;2023-04-07T12:30:54;100753.84;;;13.15;22.30
37792;BME280;29527;55.766;37.570;2023-04-07T12:33:20;100758.22;;;13.16;22.29
37792;BME280;29527;55.766;37.570;2023-04-07T12:35:46;100742.16;;;12.67;22.93
37792;BME280;29527;55.766;37.570;2023-04-07T12:38:11;100738.56;;;12.80;22.78
37792;BME280;29527;55.766;37.570;2023-04-07T12:40:37;100732.72;;;12.61;22.93
37792;BME280;29527;55.766;37.570;2023-04-07T12:43:05;100742.44;;;12.75;23.01
37792;BME280;29527;55.766;37.570;2023-04-07T12:45:31;100737.06;;;12.75;22.96
37792;BME280;29527;55.766;37.570;2023-04-07T12:47:57;100737.59;;;12.81;22.94
37792;BME280;29527;55.766;37.570;2023-04-07T12:50:23;100735.41;;;12.86;22.80
37792;BME280;29527;55.766;37.570;2023-04-07T12:52:53;100740.22;;;13.05;22.98
37792;BME280;29527;55.766;37.570;2023-04-07T12:55:19;100749.91;;;13.43;22.11
37792;BME280;29527;55.766;37.570;2023-04-07T12:57:45;100724.97;;;13.05;22.70
37792;BME280;29527;55.766;37.570;2023-04-07T13:00:12;100739.41;;;12.80;22.71
37792;BME280;29527;55.766;37.570;2023-04-07T13:02:38;100732.34;;;12.55;23.12
37792;BME280;29527;55.766;37.570;2023-04-07T13:05:04;100745.78;;;12.55;23.21
37792;BME280;29527;55.766;37.570;2023-04-07T13:07:30;100740.09;;;12.46;23.79
37792;BME280;29527;55.766;37.570;2023-04-07T13:09:55;100735.41;;;12.61;23.46
37792;BME280;29527;55.766;37.570;2023-04-07T13:12:22;100749.38;;;12.42;23.83